LFMY 200030Z AUTO 01001KT CAVOK 14/10 Q1025 LFMY 200000Z AUTO 00000KT CAVOK 15/10 Q1025 LFMY 192330Z AUTO 00000KT CAVOK 16/11 Q1025 LFMY 192300Z AUTO 00000KT CAVOK 15/11 Q1025 LFMY 192230Z AUTO 00000KT CAVOK 16/11 Q1025 LFMY 192200Z AUTO 00000KT CAVOK 17/11 Q1025 LFMY 192130Z AUTO 00000KT CAVOK 18/11 Q1025 LFMY 192100Z AUTO 00000KT CAVOK 18/11 Q1025 LFMY 192030Z AUTO 00000KT CAVOK 19/11 Q1025 LFMY 192000Z AUTO 00000KT CAVOK 21/11 Q1024 LFMY 191930Z AUTO 18003KT 120V240 CAVOK 23/10 Q1024 LFMY 191900Z AUTO 16007KT 130V190 CAVOK 23/10 Q1024 LFMY 191830Z AUTO 17008KT 120V190 CAVOK 24/10 Q1024 LFMY 191800Z AUTO 17008KT 140V200 CAVOK 26/11 Q1024 LFMY 191730Z AUTO 19011KT 150V220 CAVOK 26/11 Q1023 LFMY 191700Z AUTO 19009KT 150V230 CAVOK 27/11 Q1023 LFMY 191630Z AUTO 19011KT CAVOK 27/10 Q1023 LFMY 191600Z AUTO 18010KT 150V210 CAVOK 28/11 Q1023 TEMPO 18015G25KT LFMY 191530Z AUTO 19013KT 150V210 CAVOK 28/10 Q1023 TEMPO 18015G25KT LFMY 191500Z AUTO 20016KT CAVOK 29/09 Q1023 TEMPO 18015G25KT LFMY 191430Z AUTO 19012KT 160V230 CAVOK 28/07 Q1023 TEMPO 18015G25KT LFMY 191400Z AUTO 17012KT 140V210 CAVOK 29/08 Q1023 TEMPO 19015G25KT LFMY 191330Z AUTO 19013KT 150V220 CAVOK 30/09 Q1024 TEMPO 19015G25KT LFMY 191300Z AUTO 18011KT 150V220 CAVOK 29/10 Q1024 TEMPO 19015G25KT LFMY 191230Z AUTO 21009KT 160V240 CAVOK 28/12 Q1024 TEMPO 19015G25KT LFMY 191200Z AUTO 24009KT 210V270 CAVOK 27/14 Q1024 TEMPO 19015G25KT LFMY 191130Z AUTO 23008KT 180V260 CAVOK 28/15 Q1024 TEMPO 19015G25KT LFMY 191100Z AUTO 23009KT CAVOK 27/15 Q1024 NOSIG LFMY 191030Z AUTO 24009KT 210V270 CAVOK 27/16 Q1024 NOSIG LFMY 191000Z AUTO 24009KT 210V270 CAVOK 27/16 Q1024 NOSIG LFMY 190930Z AUTO VRB03KT CAVOK 27/15 Q1024 NOSIG LFMY 190900Z AUTO 24004KT 200V290 CAVOK 26/15 Q1024 NOSIG LFMY 190830Z AUTO 22005KT 190V260 CAVOK 25/16 Q1024 NOSIG LFMY 190800Z AUTO 25005KT 200V280 CAVOK 24/15 Q1024 NOSIG LFMY 190730Z AUTO 23004KT 200V270 CAVOK 24/15 Q1024 NOSIG LFMY 190700Z AUTO VRB02KT CAVOK 22/14 Q1024 NOSIG LFMY 190630Z AUTO VRB03KT CAVOK 20/15 Q1023 NOSIG LFMY 190600Z AUTO 04003KT 360V070 CAVOK 18/15 Q1023 NOSIG LFMY 190530Z AUTO VRB02KT CAVOK 16/14 Q1023 NOSIG LFMY 190500Z AUTO 08002KT 6000 NSC 14/13 Q1023 NOSIG LFMY 190430Z AUTO 00000KT 6000 NSC 14/14 Q1023 LFMY 190400Z AUTO VRB02KT 5000 BR NSC 13/13 Q1023 LFMY 190330Z AUTO 18001KT 3700 0700 R16/1000D BCFG FEW007 14/13 Q1022 LFMY 190300Z AUTO 16001KT 6000 0400 R16/0500D BCFG NSC 15/14 Q1022 LFMY 190230Z AUTO 00000KT 6000 NSC 15/14 Q1022 LFMY 190200Z AUTO VRB02KT 6000 NSC 15/15 Q1022 LFMY 190130Z AUTO 07002KT 5000 BR NSC 14/13 Q1022 LFMY 190100Z AUTO VRB01KT 7000 NSC 15/14 Q1022 LFMY 190030Z AUTO 06001KT 7000 NSC 15/14 Q1022 LFMY 190000Z AUTO 05002KT 7000 NSC 15/14 Q1022 LFMY 182330Z AUTO 00000KT 6000 R16/1400U NSC 16/14 Q1022 LFMY 182300Z AUTO 00000KT 6000 NSC 16/14 Q1022 LFMY 182230Z AUTO 00000KT 7000 NSC 17/16 Q1022 LFMY 182200Z AUTO 00000KT CAVOK 18/17 Q1021 LFMY 182130Z AUTO 00000KT CAVOK 18/16 Q1021 LFMY 182100Z AUTO 04002KT CAVOK 18/16 Q1021 LFMY 182030Z AUTO 00000KT CAVOK 20/17 Q1021 LFMY 182000Z AUTO VRB02KT CAVOK 20/17 Q1020 LFMY 181930Z AUTO 16003KT CAVOK 20/17 Q1020 LFMY 181900Z AUTO 17003KT 140V200 CAVOK 21/17 Q1020 LFMY 181830Z AUTO 20006KT 160V240 CAVOK 22/18 Q1019 LFMY 181800Z AUTO 20004KT 160V240 CAVOK 22/17 Q1019 LFMY 181730Z AUTO 19005KT 140V230 CAVOK 23/17 Q1019 NOSIG LFMY 181700Z AUTO 19008KT 140V220 CAVOK 23/17 Q1019 NOSIG LFMY 181630Z AUTO 19007KT 150V230 CAVOK 24/17 Q1019 NOSIG LFMY 181600Z AUTO VRB05KT CAVOK 24/17 Q1019 NOSIG LFMY 181530Z AUTO 20010KT 170V230 CAVOK 24/16 Q1019 NOSIG LFMY 181500Z AUTO 19008KT 150V230 CAVOK 24/17 Q1019 NOSIG LFMY 181430Z AUTO 21010KT 180V240 CAVOK 25/17 Q1019 NOSIG LFMY 181400Z AUTO 18008KT 150V220 CAVOK 26/17 Q1019 NOSIG LFMY 181330Z AUTO 18008KT 130V220 CAVOK 27/16 Q1019 NOSIG LFMY 181300Z AUTO 21010KT 180V250 CAVOK 26/17 Q1019 NOSIG

METAR Messwerte "SALON (FAFB)" LFMY

Zurück zur Übersicht

Ortsname
Ländercode / m ü. NN
Zeit Temperatur Taupunkt Rel.
Luftfeuchte
Luftdruck:
Altimeter
NN
Station
Wind in Beaufort
(Knoten)
Sichtweite
(Meter)
Wolken
(Meter über Grund)
Wettererscheinung
SALON (FAFB)
FR 57
Fr 20.05. 02:30141077 %1025
1025
1018
N 1 (1)>= 10000Nicht signifikant 
SALON (FAFB)
FR 57
Fr 20.05. 02:00151072 %1025
1025
1018
Windstill>= 10000Nicht signifikant 
SALON (FAFB)
FR 57
Fr 20.05. 01:30161172 %1025
1025
1018
Windstill>= 10000Nicht signifikant 
SALON (FAFB)
FR 57
Fr 20.05. 01:00151177 %1025
1025
1018
Windstill>= 10000Nicht signifikant 
SALON (FAFB)
FR 57
Fr 20.05. 00:30161172 %1025
1025
1018
Windstill>= 10000Nicht signifikant 
SALON (FAFB)
FR 57
Fr 20.05. 00:00171168 %1025
1025
1018
Windstill>= 10000Nicht signifikant 
SALON (FAFB)
FR 57
Do 19.05. 23:30181164 %1025
1025
1018
Windstill>= 10000Nicht signifikant 
SALON (FAFB)
FR 57
Do 19.05. 23:00181164 %1025
1025
1018
Windstill>= 10000Nicht signifikant 
SALON (FAFB)
FR 57
Do 19.05. 22:30191160 %1025
1025
1018
Windstill>= 10000Nicht signifikant 
SALON (FAFB)
FR 57
Do 19.05. 22:00211153 %1024
1024
1017
Windstill>= 10000Nicht signifikant 
SALON (FAFB)
FR 57
Do 19.05. 21:30231044 %1024
1024
1017
S 2 (3)
OSO - WSW
>= 10000Nicht signifikant 
SALON (FAFB)
FR 57
Do 19.05. 21:00231044 %1024
1024
1017
SSO 3 (7)
SO - S
>= 10000Nicht signifikant 
SALON (FAFB)
FR 57
Do 19.05. 20:30241041 %1024
1024
1017
S 3 (8)
OSO - S
>= 10000Nicht signifikant 
SALON (FAFB)
FR 57
Do 19.05. 20:00261139 %1024
1024
1017
S 3 (8)
SO - SSW
>= 10000Nicht signifikant 
SALON (FAFB)
FR 57
Do 19.05. 19:30261139 %1023
1023
1016
S 4 (11)
SSO - SW
>= 10000Nicht signifikant 
SALON (FAFB)
FR 57
Do 19.05. 19:00271137 %1023
1023
1016
S 3 (9)
SSO - SW
>= 10000Nicht signifikant 
SALON (FAFB)
FR 57
Do 19.05. 18:30271034 %1023
1023
1016
S 4 (11)>= 10000Nicht signifikant 
SALON (FAFB)
FR 57
Do 19.05. 18:00281135 %1023
1023
1016
S 3 (10)
SSO - SSW
Bald zeitweise:
S 4 (15) - 6 (25)
>= 10000Nicht signifikant 
SALON (FAFB)
FR 57
Do 19.05. 17:30281032 %1023
1023
1016
S 4 (13)
SSO - SSW
Bald zeitweise:
S 4 (15) - 6 (25)
>= 10000Nicht signifikant 
SALON (FAFB)
FR 57
Do 19.05. 17:0029929 %1023
1023
1016
SSW 5 (16)
Bald zeitweise:
S 4 (15) - 6 (25)
>= 10000Nicht signifikant 
SALON (FAFB)
FR 57
Do 19.05. 16:3028727 %1023
1023
1016
S 4 (12)
SSO - SW
Bald zeitweise:
S 4 (15) - 6 (25)
>= 10000Nicht signifikant 
SALON (FAFB)
FR 57
Do 19.05. 16:0029827 %1023
1023
1016
S 4 (12)
SO - SSW
Bald zeitweise:
S 4 (15) - 6 (25)
>= 10000Nicht signifikant 
SALON (FAFB)
FR 57
Do 19.05. 15:3030927 %1024
1024
1017
S 4 (13)
SSO - SW
Bald zeitweise:
S 4 (15) - 6 (25)
>= 10000Nicht signifikant 
SALON (FAFB)
FR 57
Do 19.05. 15:00291031 %1024
1024
1017
S 4 (11)
SSO - SW
Bald zeitweise:
S 4 (15) - 6 (25)
>= 10000Nicht signifikant 
SALON (FAFB)
FR 57
Do 19.05. 14:30281237 %1024
1024
1017
SSW 3 (9)
SSO - WSW
Bald zeitweise:
S 4 (15) - 6 (25)
>= 10000Nicht signifikant 
SALON (FAFB)
FR 57
Do 19.05. 14:00271445 %1024
1024
1017
WSW 3 (9)
SSW - W
Bald zeitweise:
S 4 (15) - 6 (25)
>= 10000Nicht signifikant 
SALON (FAFB)
FR 57
Do 19.05. 13:30281545 %1024
1024
1017
SW 3 (8)
S - W
Bald zeitweise:
S 4 (15) - 6 (25)
>= 10000Nicht signifikant 
SALON (FAFB)
FR 57
Do 19.05. 13:00271548 %1024
1024
1017
SW 3 (9)>= 10000Nicht signifikant 
SALON (FAFB)
FR 57
Do 19.05. 12:30271651 %1024
1024
1017
WSW 3 (9)
SSW - W
>= 10000Nicht signifikant 
SALON (FAFB)
FR 57
Do 19.05. 12:00271651 %1024
1024
1017
WSW 3 (9)
SSW - W
>= 10000Nicht signifikant 
SALON (FAFB)
FR 57
Do 19.05. 11:30271548 %1024
1024
1017
Uml 2 (3)>= 10000Nicht signifikant 
SALON (FAFB)
FR 57
Do 19.05. 11:00261551 %1024
1024
1017
WSW 2 (4)
SSW - WNW
>= 10000Nicht signifikant 
SALON (FAFB)
FR 57
Do 19.05. 10:30251657 %1024
1024
1017
SW 2 (5)
S - W
>= 10000Nicht signifikant 
SALON (FAFB)
FR 57
Do 19.05. 10:00241557 %1024
1024
1017
WSW 2 (5)
SSW - W
>= 10000Nicht signifikant 
SALON (FAFB)
FR 57
Do 19.05. 09:30241557 %1024
1024
1017
SW 2 (4)
SSW - W
>= 10000Nicht signifikant 
SALON (FAFB)
FR 57
Do 19.05. 09:00221460 %1024
1024
1017
Uml 1 (2)>= 10000Nicht signifikant 
SALON (FAFB)
FR 57
Do 19.05. 08:30201573 %1023
1023
1016
Uml 2 (3)>= 10000Nicht signifikant 
SALON (FAFB)
FR 57
Do 19.05. 08:00181583 %1023
1023
1016
NO 2 (3)
N - ONO
>= 10000Nicht signifikant 
SALON (FAFB)
FR 57
Do 19.05. 07:30161488 %1023
1023
1016
Uml 1 (2)>= 10000Nicht signifikant 
SALON (FAFB)
FR 57
Do 19.05. 07:00141394 %1023
1023
1016
O 1 (2)6000Nicht signifikant 
SALON (FAFB)
FR 57
Do 19.05. 06:301414100 %1023
1023
1016
Windstill6000Nicht signifikant 
SALON (FAFB)
FR 57
Do 19.05. 06:001313100 %1023
1023
1016
Uml 1 (2)5000Nicht signifikantNebeldunst
SALON (FAFB)
FR 57
Do 19.05. 05:30141394 %1022
1022
1015
S 1 (1)3700Leicht bewölkt (210)Nebel-Bänke
SALON (FAFB)
FR 57
Do 19.05. 05:00151494 %1022
1022
1015
SSO 1 (1)6000Nicht signifikantNebel-Bänke
SALON (FAFB)
FR 57
Do 19.05. 04:30151494 %1022
1022
1015
Windstill6000Nicht signifikant 
SALON (FAFB)
FR 57
Do 19.05. 04:001515100 %1022
1022
1015
Uml 1 (2)6000Nicht signifikant 
SALON (FAFB)
FR 57
Do 19.05. 03:30141394 %1022
1022
1015
ONO 1 (2)5000Nicht signifikantNebeldunst
SALON (FAFB)
FR 57
Do 19.05. 03:00151494 %1022
1022
1015
Uml 1 (1)7000Nicht signifikant 
SALON (FAFB)
FR 57
Do 19.05. 02:30151494 %1022
1022
1015
ONO 1 (1)7000Nicht signifikant 
SALON (FAFB)
FR 57
Do 19.05. 02:00151494 %1022
1022
1015
NO 1 (2)7000Nicht signifikant 
SALON (FAFB)
FR 57
Do 19.05. 01:30161488 %1022
1022
1015
Windstill6000Nicht signifikant 
SALON (FAFB)
FR 57
Do 19.05. 01:00161488 %1022
1022
1015
Windstill6000Nicht signifikant 
SALON (FAFB)
FR 57
Do 19.05. 00:30171694 %1022
1022
1015
Windstill7000Nicht signifikant 
SALON (FAFB)
FR 57
Do 19.05. 00:00181794 %1021
1021
1014
Windstill>= 10000Nicht signifikant 
SALON (FAFB)
FR 57
Mi 18.05. 23:30181688 %1021
1021
1014
Windstill>= 10000Nicht signifikant 
SALON (FAFB)
FR 57
Mi 18.05. 23:00181688 %1021
1021
1014
NO 1 (2)>= 10000Nicht signifikant 
SALON (FAFB)
FR 57
Mi 18.05. 22:30201783 %1021
1021
1014
Windstill>= 10000Nicht signifikant 
SALON (FAFB)
FR 57
Mi 18.05. 22:00201783 %1020
1020
1013
Uml 1 (2)>= 10000Nicht signifikant 
SALON (FAFB)
FR 57
Mi 18.05. 21:30201783 %1020
1020
1013
SSO 2 (3)>= 10000Nicht signifikant 
SALON (FAFB)
FR 57
Mi 18.05. 21:00211778 %1020
1020
1013
S 2 (3)
SO - SSW
>= 10000Nicht signifikant 
SALON (FAFB)
FR 57
Mi 18.05. 20:30221878 %1019
1019
1012
SSW 2 (6)
SSO - WSW
>= 10000Nicht signifikant 
SALON (FAFB)
FR 57
Mi 18.05. 20:00221773 %1019
1019
1012
SSW 2 (4)
SSO - WSW
>= 10000Nicht signifikant 
SALON (FAFB)
FR 57
Mi 18.05. 19:30231769 %1019
1019
1012
S 2 (5)
SO - SW
>= 10000Nicht signifikant 
SALON (FAFB)
FR 57
Mi 18.05. 19:00231769 %1019
1019
1012
S 3 (8)
SO - SW
>= 10000Nicht signifikant 
SALON (FAFB)
FR 57
Mi 18.05. 18:30241765 %1019
1019
1012
S 3 (7)
SSO - SW
>= 10000Nicht signifikant 
SALON (FAFB)
FR 57
Mi 18.05. 18:00241765 %1019
1019
1012
Uml 2 (5)>= 10000Nicht signifikant 
SALON (FAFB)
FR 57
Mi 18.05. 17:30241661 %1019
1019
1012
SSW 3 (10)
S - SW
>= 10000Nicht signifikant 
SALON (FAFB)
FR 57
Mi 18.05. 17:00241765 %1019
1019
1012
S 3 (8)
SSO - SW
>= 10000Nicht signifikant 
SALON (FAFB)
FR 57
Mi 18.05. 16:30251761 %1019
1019
1012
SSW 3 (10)
S - WSW
>= 10000Nicht signifikant 
SALON (FAFB)
FR 57
Mi 18.05. 16:00261758 %1019
1019
1012
S 3 (8)
SSO - SW
>= 10000Nicht signifikant 
SALON (FAFB)
FR 57
Mi 18.05. 15:30271651 %1019
1019
1012
S 3 (8)
SO - SW
>= 10000Nicht signifikant 
SALON (FAFB)
FR 57
Mi 18.05. 15:00261758 %1019
1019
1012
SSW 3 (10)
S - WSW
>= 10000Nicht signifikant 

Altimeter: Einstellung am Altimeter (Höhenmesser), die Höhe 0 muss auf diesen Luftdruckwert zeigen, damit das Gerät die Stationshöhe richtig anzeigt.

NN: Luftdruck reduziert auf "Normal Null", auf Meereshöhe, dieser von der Temperatur abhängige Wert wird bisweilen unkorrekt einfach als "Luftdruck" bezeichnet. Eigentlich nur eine fiktive Größe, die es erlaubt, Stationen auf unterschiedlichen Höhen miteinander zu vergleichen.

Station: Realer Luftdruck an der Station.